Terminal Aerodrome Forecast
Issued by NWS

Home | Current Version | Previous Version | Text Only | Print | Product List | Glossary On
Versions: 1 2 3 4 5 6 7 8 9 10 11 12 13 14 15 16 17 18
000
FTUS41 KRNK 291419 AAA
TAFLWB
TAF AMD
KLWB 291419Z 2914/3012 11005KT P6SM VCSH BKN012 OVC022
     FM291600 11004KT P6SM BKN018 OVC035
     FM291800 13005KT P6SM VCTS BKN040CB
     FM300000 09005KT 4SM SHRA BKN025 OVC040
     FM300600 04003KT 5SM BR SCT001 BKN007=

USA.gov is the U.S. government's official web portal to all federal, state and local government web resources and services.